Time;durP1;ratioP1;P1;durP2;ratioP2;P2;SDS_P1;SDS_P2;PMS_P1;PMS_P2;Temp;Humidity;BMP_temperature;BMP_pressure;BME280_temperature;BME280_humidity;BME280_pressure;Samples;Min_cycle;Max_cycle;Signal;HPM_P1;HPM_P2
2022/02/04 00:04:51;;;;;;;17.20;6.70;;;;;;;-0.55;68.29;98931.38;106055;1276;112729;-70
2022/02/04 00:07:43;;;;;;;19.60;7.40;;;;;;;-0.56;68.26;98928.45;106070;1276;95973;-70
2022/02/04 00:21:20;;;;;;;21.10;7.80;;;;;;;-0.65;68.05;98922.62;106194;1274;96945;-71
2022/02/04 00:23:44;;;;;;;21.70;8.20;;;;;;;-0.65;68.18;98921.57;106181;1274;109234;-70
2022/02/04 00:26:19;;;;;;;16.90;6.90;;;;;;;-0.64;68.20;98924.16;106183;1274;97944;-69
2022/02/04 00:33:48;;;;;;;19.90;7.40;;;;;;;-0.59;68.14;98927.49;106244;1274;96561;-70
2022/02/04 00:36:43;;;;;;;20.90;7.60;;;;;;;-0.60;68.20;98928.03;106212;1274;108363;-72
2022/02/04 00:39:21;;;;;;;21.20;8.70;;;;;;;-0.59;68.13;98930.29;106197;1274;98023;-71
2022/02/04 00:41:50;;;;;;;20.70;7.60;;;;;;;-0.58;68.15;98927.13;106239;1274;98646;-71
2022/02/04 00:44:24;;;;;;;18.30;7.80;;;;;;;-0.59;68.10;98927.66;106206;1274;110395;-72
2022/02/04 00:47:00;;;;;;;23.20;8.70;;;;;;;-0.57;68.05;98924.66;106231;1274;97748;-69
2022/02/04 00:52:36;;;;;;;21.60;8.90;;;;;;;-0.52;68.22;98918.93;106177;1274;97915;-72
2022/02/04 00:57:50;;;;;;;20.90;7.70;;;;;;;-0.50;68.13;98913.48;106157;1274;111193;-72
2022/02/04 01:28:23;;;;;;;18.60;7.20;;;;;;;-0.22;68.30;98890.33;106135;1275;96358;-71
2022/02/04 01:30:53;;;;;;;19.60;8.00;;;;;;;-0.20;68.30;98895.83;106036;1274;106731;-72
2022/02/04 01:33:24;;;;;;;20.80;7.20;;;;;;;-0.18;68.34;98888.97;106204;1274;97877;-70
2022/02/04 01:35:55;;;;;;;18.10;7.30;;;;;;;-0.14;68.33;98885.71;106240;1274;97874;-71
2022/02/04 01:38:27;;;;;;;18.00;7.50;;;;;;;-0.11;68.27;98887.52;106185;1274;111583;-72
2022/02/04 01:40:57;;;;;;;20.20;7.50;;;;;;;-0.09;68.41;98885.38;106178;1274;97937;-71
2022/02/04 01:43:26;;;;;;;16.60;7.10;;;;;;;-0.06;68.42;98883.88;106050;1276;107820;-72
2022/02/04 01:46:04;;;;;;;17.10;6.60;;;;;;;-0.02;68.40;98881.16;106056;1274;97838;-70
2022/02/04 01:48:34;;;;;;;20.70;7.80;;;;;;;-0.01;68.15;98883.73;106228;1274;97886;-71
2022/02/04 01:51:06;;;;;;;17.80;7.40;;;;;;;0.01;68.38;98886.30;106142;1274;111195;-71
2022/02/04 01:53:36;;;;;;;20.10;7.70;;;;;;;0.03;68.42;98882.58;106099;1274;97850;-70
2022/02/04 01:56:11;;;;;;;18.00;7.60;;;;;;;0.03;68.24;98880.45;106122;1273;109060;-71
2022/02/04 01:58:41;;;;;;;21.00;7.20;;;;;;;0.05;68.48;98881.61;106096;1274;95278;-71
2022/02/04 02:01:09;;;;;;;19.10;6.90;;;;;;;0.07;68.45;98883.80;106116;1273;97867;-73
2022/02/04 02:03:38;;;;;;;19.50;7.30;;;;;;;0.09;68.48;98886.35;106119;1274;112617;-72
2022/02/04 02:06:10;;;;;;;18.00;7.40;;;;;;;0.10;68.43;98887.92;106033;1274;96035;-73
2022/02/04 02:08:43;;;;;;;18.40;7.30;;;;;;;0.12;68.49;98886.46;106178;1274;107905;-72
2022/02/04 02:11:11;;;;;;;22.10;8.80;;;;;;;0.13;68.30;98889.39;105989;1275;98014;-72
2022/02/04 02:16:50;;;;;;;13.90;6.20;;;;;;;0.15;68.48;98887.77;106074;1274;110983;-73
2022/02/04 02:33:18;;;;;;;17.80;7.80;;;;;;;0.19;68.28;98882.39;106148;1274;97887;-72
2022/02/04 02:39:17;;;;;;;18.10;7.10;;;;;;;0.22;68.40;98874.95;106060;1274;97970;-72
2022/02/04 02:44:25;;;;;;;17.40;7.30;;;;;;;0.27;68.42;98876.19;106067;1275;111541;-71
2022/02/04 02:47:18;;;;;;;18.80;7.00;;;;;;;0.28;68.47;98866.73;105998;1274;97865;-72
2022/02/04 02:55:41;;;;;;;17.70;6.60;;;;;;;0.32;68.43;98861.89;105960;1274;97908;-70
2022/02/04 03:01:03;;;;;;;18.20;6.90;;;;;;;0.32;68.35;98854.74;106229;1274;95292;-70
2022/02/04 03:03:34;;;;;;;20.20;8.30;;;;;;;0.33;68.33;98850.70;106217;1274;107929;-71
2022/02/04 03:06:03;;;;;;;19.20;7.10;;;;;;;0.33;68.27;98847.58;106195;1274;97898;-72
2022/02/04 03:08:31;;;;;;;18.80;7.70;;;;;;;0.31;68.35;98845.17;106234;1274;97840;-71
2022/02/04 03:10:59;;;;;;;18.60;7.10;;;;;;;0.33;68.35;98848.27;106234;1274;111300;-72
2022/02/04 03:13:29;;;;;;;17.40;6.90;;;;;;;0.33;68.32;98846.18;106114;1276;98011;-72
2022/02/04 03:16:03;;;;;;;17.90;7.50;;;;;;;0.32;68.31;98845.67;106145;1274;107954;-72
2022/02/04 03:18:35;;;;;;;18.70;7.70;;;;;;;0.34;68.29;98845.60;106108;1274;97972;-71
2022/02/04 03:21:16;;;;;;;20.20;7.60;;;;;;;0.35;68.45;98845.04;106270;1274;97971;-70
2022/02/04 03:23:48;;;;;;;20.20;7.80;;;;;;;0.38;68.44;98845.13;106146;1274;111406;-69
2022/02/04 03:26:46;;;;;;;17.50;7.30;;;;;;;0.40;68.29;98839.14;106200;1274;96331;-70
2022/02/04 03:29:08;;;;;;;17.00;6.70;;;;;;;0.42;68.46;98831.36;106113;1276;107873;-71
2022/02/04 03:31:45;;;;;;;17.50;7.00;;;;;;;0.41;68.25;98832.42;106154;1274;98071;-72
2022/02/04 03:34:17;;;;;;;17.90;7.70;;;;;;;0.39;68.29;98828.88;106090;1274;96577;-71
2022/02/04 03:36:46;;;;;;;16.10;7.20;;;;;;;0.36;68.28;98825.65;106219;1274;111370;-72
2022/02/04 03:39:14;;;;;;;15.50;6.10;;;;;;;0.34;68.30;98825.20;106058;1275;97807;-72
2022/02/04 03:41:42;;;;;;;18.20;6.90;;;;;;;0.32;68.26;98820.55;106129;1274;107685;-72
2022/02/04 03:44:10;;;;;;;19.80;8.50;;;;;;;0.31;68.08;98817.08;106225;1274;97877;-73
2022/02/04 03:46:38;;;;;;;20.60;7.80;;;;;;;0.30;68.06;98819.59;106240;1274;97877;-74
2022/02/04 03:49:06;;;;;;;24.50;8.50;;;;;;;0.28;68.01;98816.13;106194;1274;111331;-72
2022/02/04 03:51:34;;;;;;;25.30;8.90;;;;;;;0.27;68.04;98813.91;106220;1274;95845;-72
2022/02/04 03:54:02;;;;;;;24.00;8.80;;;;;;;0.27;67.97;98808.86;106179;1274;107855;-70
2022/02/04 03:56:29;;;;;;;22.00;8.50;;;;;;;0.26;67.95;98804.53;106155;1274;95358;-70
2022/02/04 03:58:57;;;;;;;19.70;7.50;;;;;;;0.27;68.06;98801.17;106287;1274;97953;-71
2022/02/04 04:01:25;;;;;;;18.40;7.80;;;;;;;0.28;67.92;98799.41;106252;1274;111404;-71
2022/02/04 04:03:53;;;;;;;19.20;8.20;;;;;;;0.30;68.12;98796.21;106219;1274;97873;-70
2022/02/04 04:06:21;;;;;;;21.50;8.80;;;;;;;0.31;67.88;98797.91;106251;1274;107693;-71
2022/02/04 04:08:52;;;;;;;19.60;8.30;;;;;;;0.33;67.90;98797.15;106225;1274;98499;-70
2022/02/04 04:11:22;;;;;;;19.20;8.00;;;;;;;0.34;67.85;98796.09;106248;1274;98018;-70
2022/02/04 04:13:50;;;;;;;19.40;8.60;;;;;;;0.34;67.82;98799.58;106211;1274;109944;-71
2022/02/04 04:16:20;;;;;;;20.50;8.30;;;;;;;0.34;67.89;98801.66;106139;1274;97878;-70
2022/02/04 04:18:48;;;;;;;20.40;8.60;;;;;;;0.36;68.00;98803.15;106129;1274;108986;-70
2022/02/04 04:21:17;;;;;;;20.40;9.10;;;;;;;0.38;68.10;98803.77;106185;1274;98679;-71
2022/02/04 04:23:45;;;;;;;22.80;10.10;;;;;;;0.40;68.03;98806.30;106218;1274;96590;-70
2022/02/04 04:26:13;;;;;;;26.20;12.60;;;;;;;0.42;68.02;98800.31;106195;1274;111361;-69
2022/02/04 04:28:42;;;;;;;24.80;10.40;;;;;;;0.43;67.91;98800.61;106272;1274;97974;-68
2022/02/04 04:31:09;;;;;;;22.00;8.50;;;;;;;0.41;67.89;98799.12;106222;1274;107684;-70
2022/02/04 04:33:37;;;;;;;21.50;8.50;;;;;;;0.41;67.85;98796.69;106190;1274;96531;-69
2022/02/04 04:36:06;;;;;;;24.70;9.70;;;;;;;0.40;67.66;98793.41;106241;1274;97878;-71
2022/02/04 04:38:50;;;;;;;22.70;9.50;;;;;;;0.37;67.69;98789.35;106255;1274;111201;-72
2022/02/04 04:42:31;;;;;;;23.60;10.60;;;;;;;0.33;67.66;98786.17;106160;1274;98471;-70
2022/02/04 05:28:15;;;;;;;20.90;10.00;;;;;;;0.32;67.75;98765.61;106116;1274;97859;-70
2022/02/04 05:30:45;;;;;;;20.90;9.80;;;;;;;0.32;67.70;98764.21;106004;1274;95243;-71
2022/02/04 05:33:13;;;;;;;21.40;8.90;;;;;;;0.33;67.76;98758.77;106137;1274;111036;-70
2022/02/04 05:35:41;;;;;;;20.80;9.40;;;;;;;0.33;67.75;98759.81;106149;1274;97966;-71
2022/02/04 05:38:11;;;;;;;23.20;10.00;;;;;;;0.34;67.73;98755.08;106235;1274;106198;-71
2022/02/04 05:40:43;;;;;;;22.60;9.40;;;;;;;0.37;67.81;98756.54;106058;1274;97989;-71
2022/02/04 05:43:22;;;;;;;23.00;10.10;;;;;;;0.39;67.89;98756.66;106146;1274;96999;-72
2022/02/04 05:46:06;;;;;;;24.90;11.20;;;;;;;0.39;67.89;98763.61;106144;1274;111314;-71
2022/02/04 05:48:37;;;;;;;23.40;10.20;;;;;;;0.38;67.96;98764.88;106118;1274;97876;-71
2022/02/04 05:54:11;;;;;;;28.80;11.90;;;;;;;0.38;68.25;98762.27;106108;1274;97904;-70
2022/02/04 06:23:17;;;;;;;26.60;11.60;;;;;;;0.34;68.99;98777.23;105783;1281;97902;-72
2022/02/04 06:25:45;;;;;;;25.90;11.50;;;;;;;0.33;69.06;98779.19;105743;1280;111463;-72
2022/02/04 06:28:17;;;;;;;28.00;13.20;;;;;;;0.31;69.10;98779.42;105913;1274;97879;-71
2022/02/04 06:30:48;;;;;;;28.40;12.90;;;;;;;0.29;69.08;98777.05;106038;1274;107877;-72
2022/02/04 06:33:16;;;;;;;25.90;11.70;;;;;;;0.29;69.20;98780.36;106117;1274;98709;-73
2022/02/04 06:35:44;;;;;;;24.70;12.70;;;;;;;0.30;69.46;98777.88;106161;1274;95739;-74
2022/02/04 06:38:11;;;;;;;27.60;12.00;;;;;;;0.31;69.59;98777.69;106124;1274;111211;-73
2022/02/04 06:40:39;;;;;;;25.40;12.20;;;;;;;0.27;69.61;98777.28;106115;1274;97889;-71
2022/02/04 06:43:09;;;;;;;26.80;12.30;;;;;;;0.26;69.67;98776.79;106105;1274;107672;-73
2022/02/04 06:45:40;;;;;;;24.70;12.20;;;;;;;0.27;69.82;98775.55;106079;1274;97961;-72
2022/02/04 06:48:11;;;;;;;22.60;10.60;;;;;;;0.27;69.85;98777.48;106118;1274;95256;-73
2022/02/04 06:50:39;;;;;;;25.60;11.90;;;;;;;0.27;69.73;98778.34;106144;1274;111481;-71
2022/02/04 06:53:08;;;;;;;30.90;13.50;;;;;;;0.33;69.76;98780.25;106137;1274;95696;-72
2022/02/04 06:55:36;;;;;;;26.70;12.90;;;;;;;0.34;69.70;98778.63;106107;1274;107660;-73
2022/02/04 06:58:04;;;;;;;27.80;14.20;;;;;;;0.37;69.60;98780.08;106098;1275;97956;-73
2022/02/04 07:00:32;;;;;;;25.50;11.60;;;;;;;0.39;69.81;98774.96;106164;1274;96291;-71
2022/02/04 07:03:00;;;;;;;24.90;11.40;;;;;;;0.41;69.99;98771.39;106166;1274;112145;-72
2022/02/04 07:05:28;;;;;;;27.20;11.90;;;;;;;0.40;70.06;98767.06;106067;1275;97960;-71
2022/02/04 07:08:04;;;;;;;27.30;13.60;;;;;;;0.39;70.06;98763.61;106110;1274;107630;-72
2022/02/04 07:10:43;;;;;;;25.80;11.70;;;;;;;0.41;70.02;98762.51;106017;1274;97883;-71
2022/02/04 07:13:26;;;;;;;25.40;12.60;;;;;;;0.43;70.12;98759.45;106155;1274;97879;-72
2022/02/04 07:21:13;;;;;;;28.00;13.60;;;;;;;0.36;70.57;98756.91;106135;1274;107528;-70
2022/02/04 07:23:41;;;;;;;27.00;13.50;;;;;;;0.35;70.70;98754.52;106054;1274;97966;-69
2022/02/04 07:26:09;;;;;;;30.10;15.10;;;;;;;0.35;70.63;98756.62;106076;1274;97945;-69
2022/02/04 07:28:37;;;;;;;28.30;14.30;;;;;;;0.36;70.70;98756.06;106150;1274;110737;-71
2022/02/04 07:31:06;;;;;;;25.90;12.50;;;;;;;0.37;70.99;98763.15;106157;1274;95286;-72
2022/02/04 07:33:51;;;;;;;27.90;14.50;;;;;;;0.36;71.07;98761.30;106068;1274;107718;-73
2022/02/04 07:41:47;;;;;;;28.20;12.70;;;;;;;0.36;71.47;98759.90;106193;1274;111433;-71
2022/02/04 07:44:16;;;;;;;26.40;13.00;;;;;;;0.35;71.40;98756.77;106225;1274;97973;-71
2022/02/04 07:46:44;;;;;;;27.40;12.70;;;;;;;0.36;71.81;98759.71;106097;1274;107763;-73
2022/02/04 07:49:12;;;;;;;23.50;12.40;;;;;;;0.35;71.81;98761.68;106211;1274;97947;-72
2022/02/04 07:51:41;;;;;;;28.10;14.10;;;;;;;0.32;72.02;98764.55;106210;1274;97900;-72
2022/02/04 07:54:09;;;;;;;28.20;12.80;;;;;;;0.31;72.29;98761.80;106113;1274;111335;-70
2022/02/04 07:56:37;;;;;;;25.30;12.30;;;;;;;0.29;72.27;98756.13;106091;1274;97483;-73
2022/02/04 07:59:09;;;;;;;27.20;14.10;;;;;;;0.31;72.57;98756.95;106096;1274;108168;-72
2022/02/04 08:01:38;;;;;;;27.80;12.50;;;;;;;0.31;72.43;98753.27;106180;1274;96976;-72
2022/02/04 08:04:16;;;;;;;22.60;10.90;;;;;;;0.34;72.52;98751.92;106162;1274;97995;-72
2022/02/04 08:06:51;;;;;;;27.50;12.90;;;;;;;0.39;72.89;98747.39;106147;1274;111374;-71
2022/02/04 08:09:31;;;;;;;30.30;14.30;;;;;;;0.39;72.87;98748.79;106037;1274;97841;-73
2022/02/04 08:12:22;;;;;;;29.70;14.00;;;;;;;0.38;73.08;98741.84;106025;1274;107778;-72
2022/02/04 08:20:34;;;;;;;27.80;13.20;;;;;;;0.45;73.36;98730.94;105864;1275;111230;-73
2022/02/04 08:31:24;;;;;;;29.80;15.70;;;;;;;0.63;73.62;98730.45;106204;1274;97726;-69
2022/02/04 08:55:42;;;;;;;25.60;12.20;;;;;;;1.12;73.60;98730.50;106146;1274;97901;-72
2022/02/04 09:03:51;;;;;;;27.80;11.80;;;;;;;1.41;73.72;98731.66;106099;1275;96555;-72
2022/02/04 09:06:25;;;;;;;25.00;12.10;;;;;;;1.52;73.62;98730.52;106100;1274;108835;-73
2022/02/04 09:08:58;;;;;;;25.70;11.70;;;;;;;1.61;73.54;98734.33;106049;1274;97952;-73
2022/02/04 09:11:41;;;;;;;27.30;11.90;;;;;;;1.70;73.76;98732.57;106074;1274;97880;-71
2022/02/04 09:19:47;;;;;;;23.70;10.60;;;;;;;1.88;73.43;98739.84;106006;1274;107406;-73
2022/02/04 09:22:25;;;;;;;23.20;11.10;;;;;;;1.96;73.68;98739.17;105960;1274;95969;-74
2022/02/04 09:24:55;;;;;;;22.60;10.00;;;;;;;2.01;73.45;98742.96;105928;1274;96307;-73
2022/02/04 09:27:23;;;;;;;25.30;12.50;;;;;;;2.09;73.42;98745.27;105976;1274;111364;-72
2022/02/04 09:29:55;;;;;;;24.70;10.80;;;;;;;2.13;73.14;98744.20;105958;1274;95213;-73
2022/02/04 09:32:23;;;;;;;26.90;11.80;;;;;;;2.17;73.17;98746.52;106032;1274;107738;-71
2022/02/04 09:34:55;;;;;;;25.50;11.40;;;;;;;2.17;73.21;98744.77;106076;1274;97928;-71
2022/02/04 09:37:31;;;;;;;24.70;11.70;;;;;;;2.21;72.92;98747.20;105938;1274;96599;-72
2022/02/04 09:40:00;;;;;;;29.80;12.90;;;;;;;2.25;73.17;98746.33;106007;1274;109898;-72
2022/02/04 09:42:33;;;;;;;25.10;11.80;;;;;;;2.30;72.99;98746.96;106239;1274;97848;-71
2022/02/04 09:45:04;;;;;;;23.90;11.40;;;;;;;2.33;72.64;98753.52;106007;1274;107774;-73
2022/02/04 09:47:36;;;;;;;22.90;11.00;;;;;;;2.34;72.55;98757.48;106105;1274;97976;-70
2022/02/04 09:50:13;;;;;;;20.80;9.10;;;;;;;2.38;72.73;98755.57;106200;1274;95900;-73
2022/02/04 10:18:06;;;;;;;22.60;10.10;;;;;;;2.72;72.76;98744.08;105902;1274;97902;-73
2022/02/04 10:20:39;;;;;;;25.50;13.00;;;;;;;2.77;72.50;98738.92;106149;1274;111385;-73
2022/02/04 10:23:08;;;;;;;25.90;12.60;;;;;;;2.74;71.80;98734.69;106219;1274;98005;-73
2022/02/04 10:25:41;;;;;;;25.30;12.20;;;;;;;2.70;71.76;98734.53;105896;1274;107864;-72
2022/02/04 10:28:28;;;;;;;24.60;12.00;;;;;;;2.71;72.01;98735.20;105925;1274;97866;-73
2022/02/04 10:31:07;;;;;;;26.80;13.00;;;;;;;2.70;71.42;98728.74;106019;1272;96292;-71
2022/02/04 10:33:55;;;;;;;27.40;12.10;;;;;;;2.70;71.50;98724.38;106138;1274;111833;-73
2022/02/04 10:37:05;;;;;;;26.00;12.40;;;;;;;2.79;71.51;98720.80;106083;1274;95844;-72
2022/02/04 10:40:04;;;;;;;25.00;12.00;;;;;;;2.91;71.69;98718.89;106211;1274;106703;-73
2022/02/04 10:43:01;;;;;;;;;;;;;;;2.96;71.54;98716.15;106284;1274;97876;-71
2022/02/04 10:45:44;;;;;;;26.70;12.80;;;;;;;3.03;71.35;98720.25;106248;1274;95557;-72
2022/02/04 11:33:56;;;;;;;27.40;13.30;;;;;;;3.62;70.49;98688.30;105927;1274;97887;-72
2022/02/04 11:56:56;;;;;;;25.40;12.70;;;;;;;3.47;69.86;98660.79;106089;1274;97944;-72
2022/02/04 11:59:43;;;;;;;27.90;12.90;;;;;;;3.51;69.76;98654.65;106207;1274;110049;-71
2022/02/04 12:02:30;;;;;;;28.50;13.90;;;;;;;3.54;69.33;98656.23;106113;1274;95880;-73
2022/02/04 12:05:16;;;;;;;26.00;12.30;;;;;;;3.54;69.68;98655.39;106047;1274;107741;-73
2022/02/04 12:08:19;;;;;;;24.40;12.40;;;;;;;3.58;69.31;98656.05;106114;1274;97782;-73
2022/02/04 12:10:57;;;;;;;26.00;12.50;;;;;;;3.62;69.21;98656.02;106207;1274;97898;-72
2022/02/04 12:13:30;;;;;;;28.40;13.50;;;;;;;3.67;69.38;98653.48;106208;1274;111393;-71
2022/02/04 12:16:10;;;;;;;26.20;12.40;;;;;;;3.72;68.82;98653.73;106122;1274;95195;-72
2022/02/04 12:18:44;;;;;;;27.90;12.40;;;;;;;3.68;68.34;98650.98;106156;1274;107746;-72
2022/02/04 12:21:23;;;;;;;26.90;13.40;;;;;;;3.63;68.72;98650.90;106183;1274;97969;-73
2022/02/04 12:23:54;;;;;;;26.40;12.70;;;;;;;3.57;68.48;98646.96;106150;1274;95281;-71
2022/02/04 12:26:36;;;;;;;25.60;12.40;;;;;;;3.55;68.54;98649.38;106116;1274;111400;-74
2022/02/04 12:29:29;;;;;;;31.10;14.10;;;;;;;3.49;67.96;98643.70;105955;1274;97999;-74
2022/02/04 12:32:00;;;;;;;27.90;13.30;;;;;;;3.46;68.08;98639.96;106096;1274;107630;-72
2022/02/04 12:34:34;;;;;;;26.30;12.20;;;;;;;3.43;68.44;98637.51;106079;1274;97950;-72
2022/02/04 12:37:04;;;;;;;25.60;11.60;;;;;;;3.45;68.45;98635.65;106127;1274;97961;-72
2022/02/04 12:39:36;;;;;;;28.30;13.20;;;;;;;3.42;67.93;98629.86;106145;1274;111226;-72
2022/02/04 12:42:09;;;;;;;25.90;12.20;;;;;;;3.36;67.57;98630.52;106089;1273;97889;-72
2022/02/04 12:44:43;;;;;;;25.60;12.30;;;;;;;3.29;67.78;98626.27;106102;1274;107743;-72
2022/02/04 12:47:24;;;;;;;25.90;11.80;;;;;;;3.27;67.92;98629.16;106000;1274;96351;-73
2022/02/04 12:50:07;;;;;;;27.60;12.60;;;;;;;3.24;67.94;98627.38;106127;1274;95233;-72
2022/02/04 12:52:43;;;;;;;27.20;13.10;;;;;;;3.23;68.03;98629.55;106024;1274;111251;-74
2022/02/04 12:55:24;;;;;;;27.00;12.50;;;;;;;3.24;68.07;98625.48;106181;1274;95828;-74
2022/02/04 12:58:35;;;;;;;29.50;13.30;;;;;;;3.24;67.88;98625.30;106174;1274;107664;-73
2022/02/04 13:09:50;;;;;;;29.00;13.60;;;;;;;3.18;67.59;98619.98;106168;1274;97860;-73
2022/02/04 13:12:17;;;;;;;29.70;13.50;;;;;;;3.16;67.67;98623.42;106158;1274;106547;-72
2022/02/04 13:14:51;;;;;;;26.60;13.10;;;;;;;3.15;67.20;98623.12;106132;1274;97960;-73
2022/02/04 13:17:29;;;;;;;28.50;13.60;;;;;;;3.11;67.22;98626.48;106243;1273;97964;-73
2022/02/04 13:20:03;;;;;;;29.80;13.80;;;;;;;3.07;67.02;98628.27;106217;1274;111457;-72
2022/02/04 13:22:38;;;;;;;29.90;13.10;;;;;;;3.03;67.21;98625.85;106279;1274;95191;-73
2022/02/04 13:25:08;;;;;;;29.60;13.20;;;;;;;3.01;67.43;98631.34;106192;1274;107761;-75
2022/02/04 13:28:03;;;;;;;32.20;14.80;;;;;;;3.00;67.27;98632.06;106190;1274;97966;-73
2022/02/04 13:30:38;;;;;;;31.00;13.20;;;;;;;3.01;67.45;98631.55;106160;1274;97964;-71
2022/02/04 13:33:25;;;;;;;32.80;14.20;;;;;;;3.00;67.32;98626.48;106143;1274;112057;-71
2022/02/04 13:39:13;;;;;;;28.20;13.60;;;;;;;2.92;66.79;98614.43;106111;1274;107775;-72
2022/02/04 14:03:34;;;;;;;33.10;13.30;;;;;;;2.58;66.65;98607.27;106127;1274;98026;-74
2022/02/04 14:06:09;;;;;;;28.20;13.00;;;;;;;2.58;66.65;98605.73;105981;1274;107743;-73
2022/02/04 14:11:43;;;;;;;27.90;13.20;;;;;;;2.49;66.75;98604.70;106065;1274;97145;-71
2022/02/04 14:14:26;;;;;;;26.30;12.00;;;;;;;2.51;66.37;98606.02;106109;1274;111455;-71
2022/02/04 14:16:59;;;;;;;29.50;13.60;;;;;;;2.51;66.53;98607.78;106007;1274;98064;-71
2022/02/04 14:19:28;;;;;;;33.50;15.70;;;;;;;2.52;66.56;98604.42;106096;1274;107787;-72
2022/02/04 14:21:59;;;;;;;26.50;12.60;;;;;;;2.55;66.53;98600.79;106071;1273;96556;-72
2022/02/04 14:24:28;;;;;;;27.80;13.30;;;;;;;2.57;66.51;98597.90;106111;1274;98057;-73
2022/02/04 14:26:57;;;;;;;30.10;13.00;;;;;;;2.57;66.36;98598.24;106141;1274;111471;-74
2022/02/04 14:29:36;;;;;;;30.10;13.60;;;;;;;2.53;66.45;98592.80;106112;1274;97848;-72
2022/02/04 14:32:15;;;;;;;27.80;13.30;;;;;;;2.52;66.66;98593.20;106107;1274;107566;-71
2022/02/04 14:54:12;;;;;;;28.30;14.20;;;;;;;2.31;66.63;98581.92;106078;1274;111387;-72
2022/02/04 15:02:22;;;;;;;27.10;13.90;;;;;;;2.22;66.71;98583.94;106027;1274;97989;-70
2022/02/04 15:04:53;;;;;;;28.60;13.20;;;;;;;2.19;66.75;98584.05;106168;1274;95394;-73
2022/02/04 15:07:31;;;;;;;32.00;14.90;;;;;;;2.18;66.79;98584.83;106156;1274;111164;-73
2022/02/04 15:10:01;;;;;;;32.50;15.10;;;;;;;2.17;66.93;98589.42;106195;1274;97870;-73
2022/02/04 15:12:34;;;;;;;30.00;14.30;;;;;;;2.16;66.75;98593.13;106139;1274;107817;-71
2022/02/04 15:15:02;;;;;;;28.00;13.50;;;;;;;2.14;66.93;98593.56;106101;1274;98588;-72
2022/02/04 15:17:30;;;;;;;30.30;14.40;;;;;;;2.15;67.05;98596.83;106191;1274;97872;-72
2022/02/04 15:19:59;;;;;;;30.20;14.40;;;;;;;2.16;67.26;98591.55;106184;1274;111406;-76
2022/02/04 15:22:27;;;;;;;31.30;13.70;;;;;;;2.16;66.76;98583.34;106207;1274;95198;-76
2022/02/04 15:25:03;;;;;;;37.00;16.00;;;;;;;2.13;66.94;98574.52;106136;1274;106797;-74
2022/02/04 15:27:36;;;;;;;28.30;15.10;;;;;;;2.10;66.66;98572.73;106217;1274;98003;-76
2022/02/04 15:30:05;;;;;;;26.60;13.20;;;;;;;2.11;66.93;98575.33;106257;1274;96001;-76
2022/02/04 15:32:33;;;;;;;28.80;13.30;;;;;;;2.08;67.07;98582.98;106158;1274;123012;-73
2022/02/04 15:35:08;;;;;;;27.60;13.80;;;;;;;2.11;67.14;98587.56;106164;1274;98001;-73
2022/02/04 15:37:36;;;;;;;30.80;14.00;;;;;;;2.14;67.19;98592.33;106146;1274;108290;-75
2022/02/04 15:40:05;;;;;;;28.50;14.10;;;;;;;2.16;67.05;98588.22;106204;1274;97875;-74
2022/02/04 15:42:35;;;;;;;30.00;14.80;;;;;;;2.18;67.18;98587.42;106193;1274;98076;-73
2022/02/04 15:59:24;;;;;;;33.40;16.20;;;;;;;2.11;67.10;98591.59;106112;1274;111401;-75
2022/02/04 16:04:44;;;;;;;35.60;18.00;;;;;;;2.11;66.96;98595.46;106031;1274;107662;-74
2022/02/04 16:07:19;;;;;;;31.70;16.20;;;;;;;2.11;67.37;98597.88;106104;1274;97909;-72
2022/02/04 16:10:24;;;;;;;31.80;15.80;;;;;;;2.12;67.23;98600.11;106146;1274;97854;-72
2022/02/04 16:18:13;;;;;;;32.10;16.90;;;;;;;2.16;67.25;98604.66;106101;1274;107719;-73
2022/02/04 16:23:57;;;;;;;33.00;15.10;;;;;;;2.15;67.10;98609.08;105976;1274;97870;-75
2022/02/04 16:28:57;;;;;;;33.40;16.50;;;;;;;2.15;67.31;98609.58;106061;1274;97830;-74
2022/02/04 16:31:26;;;;;;;32.30;15.60;;;;;;;2.18;67.24;98605.11;107727;1273;108335;-74
2022/02/04 16:33:53;;;;;;;33.70;15.80;;;;;;;2.19;67.24;98599.46;107883;1274;95742;-73
2022/02/04 16:36:24;;;;;;;31.40;15.70;;;;;;;2.19;67.11;98600.52;107287;1273;97924;-73
2022/02/04 16:38:54;;;;;;;32.20;15.80;;;;;;;2.19;67.00;98604.01;106007;1274;110948;-73
2022/02/04 16:41:45;;;;;;;37.00;16.30;;;;;;;2.21;67.08;98604.98;106031;1274;97920;-72
2022/02/04 16:44:13;;;;;;;33.10;16.80;;;;;;;2.19;67.04;98606.97;107483;1274;106984;-73
2022/02/04 16:46:46;;;;;;;31.30;16.20;;;;;;;2.18;67.34;98606.14;106177;1274;97930;-72
2022/02/04 16:49:15;;;;;;;32.40;17.30;;;;;;;2.17;67.06;98607.77;106045;1274;95314;-73
2022/02/04 16:51:43;;;;;;;35.00;16.80;;;;;;;2.17;67.27;98602.69;106167;1274;111432;-71
2022/02/04 16:54:11;;;;;;;33.60;17.70;;;;;;;2.16;67.28;98604.48;106170;1274;97921;-73
2022/02/04 16:56:41;;;;;;;30.80;15.70;;;;;;;2.16;67.40;98600.67;106140;1274;105780;-72
2022/02/04 16:59:14;;;;;;;34.60;18.20;;;;;;;2.13;67.51;98601.45;106154;1274;97842;-71
2022/02/04 17:01:43;;;;;;;33.40;17.10;;;;;;;2.12;67.14;98597.34;106248;1274;95258;-72
2022/02/04 17:04:15;;;;;;;32.30;15.20;;;;;;;2.10;67.44;98600.22;106149;1274;112892;-72
2022/02/04 17:06:56;;;;;;;33.00;16.10;;;;;;;2.08;67.33;98601.34;106123;1274;97959;-72
2022/02/04 17:09:36;;;;;;;32.90;17.10;;;;;;;2.05;67.42;98600.62;106059;1274;107521;-71
2022/02/04 17:12:09;;;;;;;32.20;16.50;;;;;;;2.00;67.50;98603.48;106009;1274;98055;-72
2022/02/04 17:14:43;;;;;;;33.90;16.20;;;;;;;1.99;67.44;98605.77;106052;1274;95273;-73
2022/02/04 17:17:11;;;;;;;27.50;13.80;;;;;;;1.96;67.21;98603.48;105953;1274;111766;-74
2022/02/04 17:19:52;;;;;;;33.10;17.10;;;;;;;1.92;67.45;98602.05;106108;1274;97902;-73
2022/02/04 17:22:24;;;;;;;28.80;16.00;;;;;;;1.92;67.37;98597.00;106082;1274;107720;-73
2022/02/04 17:24:52;;;;;;;30.70;15.20;;;;;;;1.90;67.59;98604.23;106184;1274;97974;-73
2022/02/04 17:27:20;;;;;;;32.20;17.20;;;;;;;1.88;67.74;98602.04;106188;1274;95813;-72
2022/02/04 17:29:47;;;;;;;31.90;15.60;;;;;;;1.88;67.52;98599.77;106163;1274;111376;-73
2022/02/04 17:32:15;;;;;;;32.00;15.60;;;;;;;1.88;67.66;98598.05;106204;1274;95248;-72
2022/02/04 17:34:45;;;;;;;32.60;17.40;;;;;;;1.90;67.56;98601.81;106175;1274;107764;-75
2022/02/04 17:37:13;;;;;;;31.20;16.80;;;;;;;1.90;67.59;98597.44;105931;1275;97984;-76
2022/02/04 17:39:42;;;;;;;30.50;16.40;;;;;;;1.89;67.59;98592.93;106239;1274;97969;-75
2022/02/04 17:42:12;;;;;;;31.40;16.20;;;;;;;1.89;67.54;98589.06;106205;1274;111416;-75
2022/02/04 17:44:40;;;;;;;30.30;15.40;;;;;;;1.89;67.49;98586.11;106144;1274;97915;-76
2022/02/04 17:47:08;;;;;;;33.90;17.80;;;;;;;1.87;67.65;98586.19;106078;1274;107793;-74
2022/02/04 17:49:46;;;;;;;34.00;16.30;;;;;;;1.85;67.77;98584.20;106111;1274;97956;-76
2022/02/04 17:52:21;;;;;;;32.90;17.60;;;;;;;1.84;67.94;98586.36;106030;1274;97971;-75
2022/02/04 17:55:01;;;;;;;33.60;17.00;;;;;;;1.82;67.98;98583.45;106017;1274;111488;-75
2022/02/04 17:57:37;;;;;;;30.50;16.00;;;;;;;1.79;67.76;98580.95;106040;1274;97774;-74
2022/02/04 18:02:42;;;;;;;30.80;16.60;;;;;;;1.80;67.87;98584.06;106070;1274;97982;-74
2022/02/04 18:08:01;;;;;;;32.50;17.80;;;;;;;1.86;68.00;98581.89;105972;1274;111443;-74
2022/02/04 18:10:32;;;;;;;30.50;15.40;;;;;;;1.89;67.89;98583.48;105957;1274;98033;-71
2022/02/04 18:13:01;;;;;;;28.70;15.00;;;;;;;1.91;68.13;98583.91;106061;1274;107854;-75
2022/02/04 18:15:29;;;;;;;30.30;16.20;;;;;;;1.94;67.99;98581.17;106083;1274;96278;-75
2022/02/04 18:17:57;;;;;;;31.30;16.20;;;;;;;1.97;68.16;98578.41;106095;1274;97953;-72
2022/02/04 18:20:26;;;;;;;30.70;16.20;;;;;;;2.00;68.00;98572.38;106036;1274;111898;-73
2022/02/04 18:22:53;;;;;;;30.70;15.90;;;;;;;2.01;68.25;98571.08;106184;1274;98024;-74
2022/02/04 18:25:21;;;;;;;29.90;16.00;;;;;;;2.00;68.16;98573.19;106077;1274;107829;-71
2022/02/04 18:27:49;;;;;;;33.00;16.10;;;;;;;2.00;68.31;98572.70;106095;1274;97969;-73